sensor_id;sensor_type;location;lat;lon;timestamp;pressure;altitude;pressure_sealevel;temperature;humidity
56038;BME280;41907;47.848;9.000;2023-05-09T00:00:55;96060.84;;;13.93;100.00
56038;BME280;41907;47.848;9.000;2023-05-09T00:03:20;96053.28;;;13.95;100.00
56038;BME280;41907;47.848;9.000;2023-05-09T00:05:46;96052.94;;;13.88;100.00
56038;BME280;41907;47.848;9.000;2023-05-09T00:08:11;96057.09;;;13.85;100.00
56038;BME280;41907;47.848;9.000;2023-05-09T00:10:36;96050.13;;;13.93;100.00
56038;BME280;41907;47.848;9.000;2023-05-09T00:13:01;96041.56;;;13.99;100.00
56038;BME280;41907;47.848;9.000;2023-05-09T00:15:27;96048.97;;;14.02;100.00
56038;BME280;41907;47.848;9.000;2023-05-09T00:17:52;96043.28;;;14.04;100.00
56038;BME280;41907;47.848;9.000;2023-05-09T00:20:18;96043.63;;;14.02;100.00
56038;BME280;41907;47.848;9.000;2023-05-09T00:22:44;96036.69;;;14.01;100.00
56038;BME280;41907;47.848;9.000;2023-05-09T00:25:10;96038.75;;;13.96;100.00
56038;BME280;41907;47.848;9.000;2023-05-09T00:27:35;96026.44;;;13.95;100.00
56038;BME280;41907;47.848;9.000;2023-05-09T00:30:01;96029.13;;;13.95;100.00
56038;BME280;41907;47.848;9.000;2023-05-09T00:32:27;96032.13;;;13.93;100.00
56038;BME280;41907;47.848;9.000;2023-05-09T00:34:53;96030.56;;;13.92;100.00
56038;BME280;41907;47.848;9.000;2023-05-09T00:37:18;96034.34;;;13.91;100.00
56038;BME280;41907;47.848;9.000;2023-05-09T00:39:45;96029.94;;;13.95;100.00
56038;BME280;41907;47.848;9.000;2023-05-09T00:42:10;96036.50;;;13.98;100.00
56038;BME280;41907;47.848;9.000;2023-05-09T00:44:35;96034.00;;;14.01;100.00
56038;BME280;41907;47.848;9.000;2023-05-09T00:47:00;96025.78;;;13.98;100.00
56038;BME280;41907;47.848;9.000;2023-05-09T00:49:26;96028.00;;;14.04;100.00
56038;BME280;41907;47.848;9.000;2023-05-09T00:51:51;96021.97;;;14.07;100.00
56038;BME280;41907;47.848;9.000;2023-05-09T00:54:16;96019.44;;;14.11;100.00
56038;BME280;41907;47.848;9.000;2023-05-09T00:56:41;96027.00;;;14.09;100.00
56038;BME280;41907;47.848;9.000;2023-05-09T00:59:07;96024.34;;;14.09;100.00
56038;BME280;41907;47.848;9.000;2023-05-09T01:01:32;96022.59;;;14.13;100.00
56038;BME280;41907;47.848;9.000;2023-05-09T01:03:57;96018.47;;;14.15;100.00
56038;BME280;41907;47.848;9.000;2023-05-09T01:09:09;96015.47;;;14.17;100.00
56038;BME280;41907;47.848;9.000;2023-05-09T01:11:43;96010.09;;;14.17;100.00
56038;BME280;41907;47.848;9.000;2023-05-09T01:16:40;96003.34;;;14.11;100.00
56038;BME280;41907;47.848;9.000;2023-05-09T01:20:11;96001.91;;;14.13;100.00
56038;BME280;41907;47.848;9.000;2023-05-09T01:22:03;96000.03;;;14.14;100.00
56038;BME280;41907;47.848;9.000;2023-05-09T01:29:39;95995.38;;;13.94;100.00
56038;BME280;41907;47.848;9.000;2023-05-09T01:32:07;95990.84;;;13.86;100.00
56038;BME280;41907;47.848;9.000;2023-05-09T01:34:33;95991.59;;;13.95;100.00
56038;BME280;41907;47.848;9.000;2023-05-09T01:36:59;95992.34;;;14.04;100.00
56038;BME280;41907;47.848;9.000;2023-05-09T01:39:26;95995.50;;;14.06;100.00
56038;BME280;41907;47.848;9.000;2023-05-09T01:41:52;95989.66;;;14.04;100.00
56038;BME280;41907;47.848;9.000;2023-05-09T01:44:18;95989.66;;;14.04;100.00
56038;BME280;41907;47.848;9.000;2023-05-09T01:46:45;95989.00;;;14.07;100.00
56038;BME280;41907;47.848;9.000;2023-05-09T01:49:11;95998.50;;;14.04;100.00
56038;BME280;41907;47.848;9.000;2023-05-09T01:51:37;95995.50;;;14.06;100.00
56038;BME280;41907;47.848;9.000;2023-05-09T01:54:03;95991.84;;;14.10;100.00
56038;BME280;41907;47.848;9.000;2023-05-09T01:56:29;95993.09;;;14.13;100.00
56038;BME280;41907;47.848;9.000;2023-05-09T01:58:55;95994.25;;;14.03;100.00
56038;BME280;41907;47.848;9.000;2023-05-09T02:01:21;95988.72;;;14.00;100.00
56038;BME280;41907;47.848;9.000;2023-05-09T02:03:49;95988.41;;;14.01;100.00
56038;BME280;41907;47.848;9.000;2023-05-09T02:06:16;95985.09;;;14.04;100.00
56038;BME280;41907;47.848;9.000;2023-05-09T02:08:42;95983.63;;;14.07;100.00
56038;BME280;41907;47.848;9.000;2023-05-09T02:11:08;95989.34;;;14.05;100.00
56038;BME280;41907;47.848;9.000;2023-05-09T02:13:33;95985.09;;;14.04;100.00
56038;BME280;41907;47.848;9.000;2023-05-09T02:15:58;95988.56;;;14.05;100.00
56038;BME280;41907;47.848;9.000;2023-05-09T02:18:24;95987.28;;;14.02;100.00
56038;BME280;41907;47.848;9.000;2023-05-09T02:20:50;95984.63;;;14.02;100.00
56038;BME280;41907;47.848;9.000;2023-05-09T02:23:15;95970.88;;;14.04;100.00
56038;BME280;41907;47.848;9.000;2023-05-09T02:25:40;95970.59;;;13.97;100.00
56038;BME280;41907;47.848;9.000;2023-05-09T02:28:06;95971.56;;;13.92;100.00
56038;BME280;41907;47.848;9.000;2023-05-09T02:30:34;95971.56;;;13.92;100.00
56038;BME280;41907;47.848;9.000;2023-05-09T02:33:02;95964.88;;;13.77;100.00
56038;BME280;41907;47.848;9.000;2023-05-09T02:35:28;95960.41;;;13.82;100.00
56038;BME280;41907;47.848;9.000;2023-05-09T02:37:54;95957.78;;;13.73;100.00
56038;BME280;41907;47.848;9.000;2023-05-09T02:40:20;95959.50;;;13.77;100.00
56038;BME280;41907;47.848;9.000;2023-05-09T02:42:46;95954.59;;;13.79;100.00
56038;BME280;41907;47.848;9.000;2023-05-09T02:45:11;95959.16;;;13.79;100.00
56038;BME280;41907;47.848;9.000;2023-05-09T02:47:37;95951.91;;;13.79;100.00
56038;BME280;41907;47.848;9.000;2023-05-09T02:50:02;95951.59;;;13.81;100.00
56038;BME280;41907;47.848;9.000;2023-05-09T02:52:28;95958.66;;;13.86;100.00
56038;BME280;41907;47.848;9.000;2023-05-09T02:54:53;95954.88;;;13.87;100.00
56038;BME280;41907;47.848;9.000;2023-05-09T02:57:18;95957.06;;;13.93;100.00
56038;BME280;41907;47.848;9.000;2023-05-09T02:59:45;95956.00;;;13.86;100.00
56038;BME280;41907;47.848;9.000;2023-05-09T03:02:10;95955.53;;;13.84;100.00
56038;BME280;41907;47.848;9.000;2023-05-09T03:04:35;95962.47;;;13.85;100.00
56038;BME280;41907;47.848;9.000;2023-05-09T03:07:00;95957.25;;;13.79;100.00
56038;BME280;41907;47.848;9.000;2023-05-09T03:09:26;95953.00;;;13.78;100.00
56038;BME280;41907;47.848;9.000;2023-05-09T03:11:51;95962.00;;;13.83;100.00
56038;BME280;41907;47.848;9.000;2023-05-09T03:14:16;95955.19;;;13.85;100.00
56038;BME280;41907;47.848;9.000;2023-05-09T03:16:42;95949.97;;;13.89;100.00
56038;BME280;41907;47.848;9.000;2023-05-09T03:19:07;95949.06;;;13.85;100.00
56038;BME280;41907;47.848;9.000;2023-05-09T03:21:32;95950.63;;;13.86;100.00
56038;BME280;41907;47.848;9.000;2023-05-09T03:23:58;95947.47;;;13.84;100.00
56038;BME280;41907;47.848;9.000;2023-05-09T03:26:23;95949.53;;;13.78;100.00
56038;BME280;41907;47.848;9.000;2023-05-09T03:28:50;95947.31;;;13.80;100.00
56038;BME280;41907;47.848;9.000;2023-05-09T03:31:15;95942.63;;;13.77;100.00
56038;BME280;41907;47.848;9.000;2023-05-09T03:33:40;95937.06;;;13.82;100.00
56038;BME280;41907;47.848;9.000;2023-05-09T03:36:06;95936.88;;;13.87;100.00
56038;BME280;41907;47.848;9.000;2023-05-09T03:38:31;95931.81;;;13.94;100.00
56038;BME280;41907;47.848;9.000;2023-05-09T03:40:56;95934.50;;;13.94;100.00
56038;BME280;41907;47.848;9.000;2023-05-09T03:43:22;95936.88;;;13.96;100.00
56038;BME280;41907;47.848;9.000;2023-05-09T03:45:47;95935.41;;;13.98;100.00
56038;BME280;41907;47.848;9.000;2023-05-09T03:48:12;95931.03;;;13.94;100.00
56038;BME280;41907;47.848;9.000;2023-05-09T03:50:37;95924.69;;;13.98;100.00
56038;BME280;41907;47.848;9.000;2023-05-09T03:53:02;95923.88;;;13.98;100.00
56038;BME280;41907;47.848;9.000;2023-05-09T03:55:28;95927.84;;;14.00;100.00
56038;BME280;41907;47.848;9.000;2023-05-09T03:57:53;95924.34;;;14.00;100.00
56038;BME280;41907;47.848;9.000;2023-05-09T04:00:19;95922.94;;;14.02;100.00
56038;BME280;41907;47.848;9.000;2023-05-09T04:02:44;95917.25;;;14.04;100.00
56038;BME280;41907;47.848;9.000;2023-05-09T04:05:10;95921.81;;;14.03;100.00
56038;BME280;41907;47.848;9.000;2023-05-09T04:07:35;95915.34;;;14.04;100.00
56038;BME280;41907;47.848;9.000;2023-05-09T04:10:00;95915.78;;;14.06;100.00
56038;BME280;41907;47.848;9.000;2023-05-09T04:12:25;95914.69;;;14.07;100.00
56038;BME280;41907;47.848;9.000;2023-05-09T04:14:51;95916.25;;;14.08;100.00
56038;BME280;41907;47.848;9.000;2023-05-09T04:17:16;95919.72;;;14.09;100.00
56038;BME280;41907;47.848;9.000;2023-05-09T04:19:41;95923.66;;;14.11;100.00
56038;BME280;41907;47.848;9.000;2023-05-09T04:22:07;95930.28;;;14.14;100.00
56038;BME280;41907;47.848;9.000;2023-05-09T04:24:32;95928.84;;;14.16;100.00
56038;BME280;41907;47.848;9.000;2023-05-09T04:26:58;95927.41;;;14.19;100.00
56038;BME280;41907;47.848;9.000;2023-05-09T04:29:23;95929.91;;;14.24;100.00
56038;BME280;41907;47.848;9.000;2023-05-09T04:31:48;95928.00;;;14.25;100.00
56038;BME280;41907;47.848;9.000;2023-05-09T04:34:13;95927.56;;;14.23;100.00
56038;BME280;41907;47.848;9.000;2023-05-09T04:36:38;95924.41;;;14.21;100.00
56038;BME280;41907;47.848;9.000;2023-05-09T04:39:04;95921.88;;;14.24;100.00
56038;BME280;41907;47.848;9.000;2023-05-09T04:41:29;95924.72;;;14.19;100.00
56038;BME280;41907;47.848;9.000;2023-05-09T04:43:55;95934.81;;;14.22;100.00
56038;BME280;41907;47.848;9.000;2023-05-09T04:46:20;95921.41;;;14.22;100.00
56038;BME280;41907;47.848;9.000;2023-05-09T04:48:45;95921.97;;;14.28;100.00
56038;BME280;41907;47.848;9.000;2023-05-09T04:51:10;95935.22;;;14.33;100.00
56038;BME280;41907;47.848;9.000;2023-05-09T04:53:35;95932.38;;;14.29;100.00
56038;BME280;41907;47.848;9.000;2023-05-09T04:56:01;95933.03;;;14.26;100.00
56038;BME280;41907;47.848;9.000;2023-05-09T04:58:26;95918.44;;;14.15;100.00
56038;BME280;41907;47.848;9.000;2023-05-09T05:00:51;95918.41;;;14.24;100.00
56038;BME280;41907;47.848;9.000;2023-05-09T05:03:17;95925.44;;;14.28;100.00
56038;BME280;41907;47.848;9.000;2023-05-09T05:05:42;95916.28;;;14.29;100.00
56038;BME280;41907;47.848;9.000;2023-05-09T05:08:07;95925.72;;;14.35;100.00
56038;BME280;41907;47.848;9.000;2023-05-09T05:10:32;95929.66;;;14.38;100.00
56038;BME280;41907;47.848;9.000;2023-05-09T05:12:58;95930.28;;;14.35;100.00
56038;BME280;41907;47.848;9.000;2023-05-09T05:15:23;95933.44;;;14.37;100.00
56038;BME280;41907;47.848;9.000;2023-05-09T05:17:48;95934.72;;;14.39;100.00
56038;BME280;41907;47.848;9.000;2023-05-09T05:20:14;95933.63;;;14.40;100.00
56038;BME280;41907;47.848;9.000;2023-05-09T05:22:39;95936.78;;;14.34;100.00
56038;BME280;41907;47.848;9.000;2023-05-09T05:25:04;95931.91;;;14.27;100.00
56038;BME280;41907;47.848;9.000;2023-05-09T05:27:30;95930.97;;;14.32;100.00
56038;BME280;41907;47.848;9.000;2023-05-09T05:29:55;95924.13;;;14.34;100.00
56038;BME280;41907;47.848;9.000;2023-05-09T05:32:20;95936.13;;;14.37;100.00
56038;BME280;41907;47.848;9.000;2023-05-09T05:34:46;95935.53;;;14.31;100.00
56038;BME280;41907;47.848;9.000;2023-05-09T05:37:11;95944.50;;;14.35;100.00
56038;BME280;41907;47.848;9.000;2023-05-09T05:39:36;95935.81;;;14.38;100.00
56038;BME280;41907;47.848;9.000;2023-05-09T05:42:01;95938.66;;;14.42;100.00
56038;BME280;41907;47.848;9.000;2023-05-09T05:44:27;95939.09;;;14.44;100.00
56038;BME280;41907;47.848;9.000;2023-05-09T05:46:52;95943.97;;;14.50;100.00
56038;BME280;41907;47.848;9.000;2023-05-09T05:49:17;95941.75;;;14.52;100.00
56038;BME280;41907;47.848;9.000;2023-05-09T05:51:43;95931.13;;;14.56;100.00
56038;BME280;41907;47.848;9.000;2023-05-09T05:54:08;95933.03;;;14.56;100.00
56038;BME280;41907;47.848;9.000;2023-05-09T05:56:33;95927.66;;;14.56;100.00
56038;BME280;41907;47.848;9.000;2023-05-09T05:58:58;95937.28;;;14.57;100.00
56038;BME280;41907;47.848;9.000;2023-05-09T06:01:24;95922.09;;;14.61;100.00
56038;BME280;41907;47.848;9.000;2023-05-09T06:03:49;95922.69;;;14.66;100.00
56038;BME280;41907;47.848;9.000;2023-05-09T06:06:18;95914.53;;;14.75;100.00
56038;BME280;41907;47.848;9.000;2023-05-09T06:08:44;95914.78;;;14.82;100.00
56038;BME280;41907;47.848;9.000;2023-05-09T06:11:09;95910.13;;;14.91;100.00
56038;BME280;41907;47.848;9.000;2023-05-09T06:13:35;95912.31;;;15.10;100.00
56038;BME280;41907;47.848;9.000;2023-05-09T06:16:00;95909.38;;;15.36;100.00
56038;BME280;41907;47.848;9.000;2023-05-09T06:18:25;95898.25;;;15.82;100.00
56038;BME280;41907;47.848;9.000;2023-05-09T06:20:50;95905.88;;;16.57;100.00
56038;BME280;41907;47.848;9.000;2023-05-09T06:23:16;95898.88;;;17.24;100.00
56038;BME280;41907;47.848;9.000;2023-05-09T06:25:46;95890.13;;;17.27;100.00
56038;BME280;41907;47.848;9.000;2023-05-09T06:28:11;95887.66;;;17.22;100.00
56038;BME280;41907;47.848;9.000;2023-05-09T06:30:36;95889.06;;;17.16;100.00
56038;BME280;41907;47.848;9.000;2023-05-09T06:33:01;95890.56;;;17.01;100.00
56038;BME280;41907;47.848;9.000;2023-05-09T06:35:27;95898.91;;;16.68;100.00
56038;BME280;41907;47.848;9.000;2023-05-09T06:37:52;95882.84;;;16.31;100.00
56038;BME280;41907;47.848;9.000;2023-05-09T06:40:17;95881.63;;;16.05;100.00
56038;BME280;41907;47.848;9.000;2023-05-09T06:42:43;95872.81;;;15.92;100.00
56038;BME280;41907;47.848;9.000;2023-05-09T06:45:08;95868.00;;;15.73;100.00
56038;BME280;41907;47.848;9.000;2023-05-09T06:47:33;95867.06;;;15.45;100.00
56038;BME280;41907;47.848;9.000;2023-05-09T06:49:59;95858.25;;;15.69;100.00
56038;BME280;41907;47.848;9.000;2023-05-09T06:52:24;95859.47;;;15.71;100.00
56038;BME280;41907;47.848;9.000;2023-05-09T06:54:49;95860.03;;;15.89;100.00
56038;BME280;41907;47.848;9.000;2023-05-09T06:57:15;95855.22;;;15.94;100.00
56038;BME280;41907;47.848;9.000;2023-05-09T06:59:40;95858.56;;;16.04;100.00
56038;BME280;41907;47.848;9.000;2023-05-09T07:02:05;95870.41;;;16.15;100.00
56038;BME280;41907;47.848;9.000;2023-05-09T07:04:30;95861.44;;;16.23;100.00
56038;BME280;41907;47.848;9.000;2023-05-09T07:06:56;95855.81;;;16.28;100.00
56038;BME280;41907;47.848;9.000;2023-05-09T07:09:21;95854.09;;;16.35;100.00
56038;BME280;41907;47.848;9.000;2023-05-09T07:11:51;95843.94;;;16.57;100.00
56038;BME280;41907;47.848;9.000;2023-05-09T07:14:16;95848.91;;;16.83;100.00
56038;BME280;41907;47.848;9.000;2023-05-09T07:16:42;95840.63;;;17.35;100.00
56038;BME280;41907;47.848;9.000;2023-05-09T07:19:07;95837.28;;;18.04;100.00
56038;BME280;41907;47.848;9.000;2023-05-09T07:21:32;95838.22;;;18.50;100.00
56038;BME280;41907;47.848;9.000;2023-05-09T07:23:58;95839.66;;;18.44;100.00
56038;BME280;41907;47.848;9.000;2023-05-09T07:26:23;95834.13;;;18.95;100.00
56038;BME280;41907;47.848;9.000;2023-05-09T07:28:48;95842.22;;;19.14;100.00
56038;BME280;41907;47.848;9.000;2023-05-09T07:31:13;95840.13;;;18.66;100.00
56038;BME280;41907;47.848;9.000;2023-05-09T07:33:39;95839.22;;;18.23;100.00
56038;BME280;41907;47.848;9.000;2023-05-09T07:36:04;95829.03;;;17.97;100.00
56038;BME280;41907;47.848;9.000;2023-05-09T07:38:29;95830.25;;;17.84;100.00
56038;BME280;41907;47.848;9.000;2023-05-09T07:40:54;95826.47;;;17.69;100.00
56038;BME280;41907;47.848;9.000;2023-05-09T07:43:20;95829.16;;;17.69;100.00
56038;BME280;41907;47.848;9.000;2023-05-09T07:45:45;95829.47;;;17.83;100.00
56038;BME280;41907;47.848;9.000;2023-05-09T07:48:11;95821.38;;;17.99;100.00
56038;BME280;41907;47.848;9.000;2023-05-09T07:50:36;95820.34;;;17.88;100.00
56038;BME280;41907;47.848;9.000;2023-05-09T07:53:01;95815.34;;;19.02;100.00
56038;BME280;41907;47.848;9.000;2023-05-09T07:55:27;95810.94;;;18.94;100.00
56038;BME280;41907;47.848;9.000;2023-05-09T07:57:52;95810.94;;;19.17;98.23
56038;BME280;41907;47.848;9.000;2023-05-09T08:00:17;95801.16;;;19.54;92.23
56038;BME280;41907;47.848;9.000;2023-05-09T08:02:47;95808.03;;;20.01;90.69
56038;BME280;41907;47.848;9.000;2023-05-09T08:05:12;95797.25;;;20.64;87.77
56038;BME280;41907;47.848;9.000;2023-05-09T08:07:37;95789.56;;;20.66;84.98
56038;BME280;41907;47.848;9.000;2023-05-09T08:10:03;95786.13;;;20.39;87.70
56038;BME280;41907;47.848;9.000;2023-05-09T08:12:28;95786.78;;;20.03;88.95
56038;BME280;41907;47.848;9.000;2023-05-09T08:14:53;95788.13;;;20.16;91.10
56038;BME280;41907;47.848;9.000;2023-05-09T08:17:19;95784.53;;;20.35;87.50
56038;BME280;41907;47.848;9.000;2023-05-09T08:19:44;95785.22;;;20.32;84.65
56038;BME280;41907;47.848;9.000;2023-05-09T08:22:15;95780.34;;;20.41;88.63
56038;BME280;41907;47.848;9.000;2023-05-09T08:24:40;95791.72;;;19.22;91.33
56038;BME280;41907;47.848;9.000;2023-05-09T08:27:05;95784.22;;;19.12;92.44
56038;BME280;41907;47.848;9.000;2023-05-09T08:29:30;95777.25;;;19.33;92.56
56038;BME280;41907;47.848;9.000;2023-05-09T08:31:56;95772.09;;;19.02;90.42
56038;BME280;41907;47.848;9.000;2023-05-09T08:34:21;95762.53;;;19.31;92.57
56038;BME280;41907;47.848;9.000;2023-05-09T08:36:46;95768.19;;;19.22;89.48
56038;BME280;41907;47.848;9.000;2023-05-09T08:39:11;95763.78;;;19.60;85.98
56038;BME280;41907;47.848;9.000;2023-05-09T08:41:37;95761.13;;;19.93;84.27
56038;BME280;41907;47.848;9.000;2023-05-09T08:44:02;95751.88;;;20.24;85.86
56038;BME280;41907;47.848;9.000;2023-05-09T08:46:30;95756.66;;;20.34;83.70
56038;BME280;41907;47.848;9.000;2023-05-09T08:48:57;95754.38;;;20.40;86.23
56038;BME280;41907;47.848;9.000;2023-05-09T08:51:24;95758.38;;;21.27;87.97
56038;BME280;41907;47.848;9.000;2023-05-09T08:53:50;95754.78;;;21.64;86.17
56038;BME280;41907;47.848;9.000;2023-05-09T08:56:16;95748.31;;;21.82;81.60
56038;BME280;41907;47.848;9.000;2023-05-09T08:58:41;95745.44;;;21.61;82.36
56038;BME280;41907;47.848;9.000;2023-05-09T09:01:06;95742.84;;;21.75;77.84
56038;BME280;41907;47.848;9.000;2023-05-09T09:03:33;95749.75;;;22.35;76.70
56038;BME280;41907;47.848;9.000;2023-05-09T09:05:58;95739.97;;;22.19;73.52
56038;BME280;41907;47.848;9.000;2023-05-09T09:08:24;95730.88;;;21.87;74.58
56038;BME280;41907;47.848;9.000;2023-05-09T09:10:50;95730.81;;;21.76;75.86
56038;BME280;41907;47.848;9.000;2023-05-09T09:13:16;95723.97;;;21.97;77.49
56038;BME280;41907;47.848;9.000;2023-05-09T09:15:42;95719.09;;;21.62;79.76
56038;BME280;41907;47.848;9.000;2023-05-09T09:18:08;95714.78;;;21.53;81.88
56038;BME280;41907;47.848;9.000;2023-05-09T09:20:45;95711.19;;;21.42;80.78
56038;BME280;41907;47.848;9.000;2023-05-09T09:23:11;95704.00;;;21.13;81.24
56038;BME280;41907;47.848;9.000;2023-05-09T09:25:41;95702.44;;;21.12;79.33
56038;BME280;41907;47.848;9.000;2023-05-09T09:28:09;95702.16;;;21.21;81.41
56038;BME280;41907;47.848;9.000;2023-05-09T09:30:34;95702.56;;;21.23;79.32
56038;BME280;41907;47.848;9.000;2023-05-09T09:33:07;95699.50;;;21.28;80.53
56038;BME280;41907;47.848;9.000;2023-05-09T09:35:36;95687.94;;;21.38;76.94
56038;BME280;41907;47.848;9.000;2023-05-09T09:38:02;95687.03;;;21.85;76.84
56038;BME280;41907;47.848;9.000;2023-05-09T09:40:30;95685.84;;;21.82;76.12
56038;BME280;41907;47.848;9.000;2023-05-09T09:42:55;95699.50;;;21.97;73.69
56038;BME280;41907;47.848;9.000;2023-05-09T09:45:20;95689.16;;;22.27;74.97
56038;BME280;41907;47.848;9.000;2023-05-09T09:47:46;95685.84;;;22.97;73.02
56038;BME280;41907;47.848;9.000;2023-05-09T09:50:15;95683.50;;;22.85;66.43
56038;BME280;41907;47.848;9.000;2023-05-09T09:52:43;95674.13;;;22.72;70.84
56038;BME280;41907;47.848;9.000;2023-05-09T09:55:08;95674.81;;;22.23;69.18
56038;BME280;41907;47.848;9.000;2023-05-09T09:57:34;95665.91;;;22.37;70.67
56038;BME280;41907;47.848;9.000;2023-05-09T10:00:04;95666.25;;;22.21;69.49
56038;BME280;41907;47.848;9.000;2023-05-09T10:02:30;95665.09;;;22.15;71.26
56038;BME280;41907;47.848;9.000;2023-05-09T10:04:55;95660.03;;;22.20;72.79
56038;BME280;41907;47.848;9.000;2023-05-09T10:07:21;95657.78;;;22.44;66.65
56038;BME280;41907;47.848;9.000;2023-05-09T10:09:47;95650.06;;;21.59;70.51
56038;BME280;41907;47.848;9.000;2023-05-09T10:12:13;95646.63;;;21.73;71.17
56038;BME280;41907;47.848;9.000;2023-05-09T10:14:43;95644.34;;;21.78;70.24
56038;BME280;41907;47.848;9.000;2023-05-09T10:17:08;95640.47;;;21.76;70.96
56038;BME280;41907;47.848;9.000;2023-05-09T10:19:35;95629.94;;;21.71;69.67
56038;BME280;41907;47.848;9.000;2023-05-09T10:22:02;95639.59;;;21.61;69.26
56038;BME280;41907;47.848;9.000;2023-05-09T10:24:54;95631.44;;;21.50;67.51
56038;BME280;41907;47.848;9.000;2023-05-09T10:27:25;95623.59;;;20.84;71.98
56038;BME280;41907;47.848;9.000;2023-05-09T10:29:55;95615.94;;;20.96;72.41
56038;BME280;41907;47.848;9.000;2023-05-09T10:32:22;95608.84;;;20.81;73.79
56038;BME280;41907;47.848;9.000;2023-05-09T10:34:49;95606.84;;;21.26;70.50
56038;BME280;41907;47.848;9.000;2023-05-09T10:37:15;95613.94;;;21.41;70.15
56038;BME280;41907;47.848;9.000;2023-05-09T10:39:41;95608.16;;;21.49;69.15
56038;BME280;41907;47.848;9.000;2023-05-09T10:42:06;95592.63;;;21.46;70.26
56038;BME280;41907;47.848;9.000;2023-05-09T10:44:32;95588.06;;;21.72;66.01
56038;BME280;41907;47.848;9.000;2023-05-09T10:46:58;95585.22;;;21.36;66.29
56038;BME280;41907;47.848;9.000;2023-05-09T10:49:23;95578.38;;;20.95;70.10
56038;BME280;41907;47.848;9.000;2023-05-09T10:51:49;95578.47;;;20.58;69.82
56038;BME280;41907;47.848;9.000;2023-05-09T10:54:24;95577.94;;;20.41;70.42
56038;BME280;41907;47.848;9.000;2023-05-09T10:56:50;95566.31;;;20.37;71.16
56038;BME280;41907;47.848;9.000;2023-05-09T11:02:01;95555.22;;;21.15;70.36
56038;BME280;41907;47.848;9.000;2023-05-09T11:04:30;95560.88;;;21.54;65.99
56038;BME280;41907;47.848;9.000;2023-05-09T11:06:56;95556.94;;;21.44;62.80
56038;BME280;41907;47.848;9.000;2023-05-09T11:11:58;95543.53;;;21.83;65.71
56038;BME280;41907;47.848;9.000;2023-05-09T11:14:32;95541.47;;;21.48;64.18
56038;BME280;41907;47.848;9.000;2023-05-09T11:17:08;95536.22;;;21.98;65.89
56038;BME280;41907;47.848;9.000;2023-05-09T11:22:10;95534.34;;;22.45;66.67
56038;BME280;41907;47.848;9.000;2023-05-09T11:24:35;95526.94;;;22.84;59.59
56038;BME280;41907;47.848;9.000;2023-05-09T11:27:01;95516.34;;;23.25;58.60
56038;BME280;41907;47.848;9.000;2023-05-09T11:29:29;95518.88;;;23.71;59.06
56038;BME280;41907;47.848;9.000;2023-05-09T11:32:06;95509.03;;;23.95;58.84
56038;BME280;41907;47.848;9.000;2023-05-09T11:34:32;95504.97;;;24.25;53.90
56038;BME280;41907;47.848;9.000;2023-05-09T11:37:10;95497.44;;;24.43;57.55
56038;BME280;41907;47.848;9.000;2023-05-09T11:39:53;95503.59;;;24.51;57.30
56038;BME280;41907;47.848;9.000;2023-05-09T11:42:19;95491.00;;;24.64;57.23
56038;BME280;41907;47.848;9.000;2023-05-09T11:44:45;95477.84;;;24.03;56.13
56038;BME280;41907;47.848;9.000;2023-05-09T11:47:12;95488.91;;;24.37;57.19
56038;BME280;41907;47.848;9.000;2023-05-09T11:49:41;95482.16;;;24.53;60.36
56038;BME280;41907;47.848;9.000;2023-05-09T11:52:06;95481.47;;;24.41;56.31
56038;BME280;41907;47.848;9.000;2023-05-09T11:54:31;95473.09;;;24.15;54.91
56038;BME280;41907;47.848;9.000;2023-05-09T11:56:57;95475.25;;;24.37;54.32
56038;BME280;41907;47.848;9.000;2023-05-09T11:59:23;95468.00;;;24.24;52.93
56038;BME280;41907;47.848;9.000;2023-05-09T12:01:49;95460.72;;;24.03;51.84
56038;BME280;41907;47.848;9.000;2023-05-09T12:04:14;95461.59;;;23.89;53.22
56038;BME280;41907;47.848;9.000;2023-05-09T12:06:45;95453.75;;;23.98;53.66
56038;BME280;41907;47.848;9.000;2023-05-09T12:09:11;95449.81;;;24.03;54.35
56038;BME280;41907;47.848;9.000;2023-05-09T12:11:38;95448.84;;;22.92;55.34
56038;BME280;41907;47.848;9.000;2023-05-09T12:14:03;95451.78;;;23.33;59.05
56038;BME280;41907;47.848;9.000;2023-05-09T12:16:29;95437.53;;;23.81;56.20
56038;BME280;41907;47.848;9.000;2023-05-09T12:18:54;95438.75;;;23.72;56.98
56038;BME280;41907;47.848;9.000;2023-05-09T12:21:20;95432.78;;;23.95;58.47
56038;BME280;41907;47.848;9.000;2023-05-09T12:23:45;95431.09;;;24.08;57.57
56038;BME280;41907;47.848;9.000;2023-05-09T12:26:11;95422.19;;;23.42;52.91
56038;BME280;41907;47.848;9.000;2023-05-09T12:28:37;95418.31;;;23.40;52.67
56038;BME280;41907;47.848;9.000;2023-05-09T12:31:04;95418.50;;;22.97;55.86
56038;BME280;41907;47.848;9.000;2023-05-09T12:33:29;95417.75;;;22.89;58.96
56038;BME280;41907;47.848;9.000;2023-05-09T12:38:30;95403.84;;;23.57;58.07
56038;BME280;41907;47.848;9.000;2023-05-09T12:41:02;95408.47;;;23.60;57.99
56038;BME280;41907;47.848;9.000;2023-05-09T12:43:31;95401.41;;;23.69;57.24
56038;BME280;41907;47.848;9.000;2023-05-09T12:45:56;95391.72;;;23.68;56.88
56038;BME280;41907;47.848;9.000;2023-05-09T12:48:22;95384.44;;;23.48;53.73
56038;BME280;41907;47.848;9.000;2023-05-09T12:50:48;95391.25;;;23.11;57.91
56038;BME280;41907;47.848;9.000;2023-05-09T12:53:13;95386.25;;;22.95;52.38
56038;BME280;41907;47.848;9.000;2023-05-09T12:55:46;95387.16;;;22.46;57.91
56038;BME280;41907;47.848;9.000;2023-05-09T12:58:13;95388.34;;;22.52;56.04
56038;BME280;41907;47.848;9.000;2023-05-09T13:00:42;95382.06;;;22.80;56.42
56038;BME280;41907;47.848;9.000;2023-05-09T13:03:26;95387.06;;;22.92;55.69
56038;BME280;41907;47.848;9.000;2023-05-09T13:05:54;95384.69;;;23.02;55.89
56038;BME280;41907;47.848;9.000;2023-05-09T13:08:20;95380.44;;;22.93;55.73
56038;BME280;41907;47.848;9.000;2023-05-09T13:10:45;95374.59;;;22.95;57.24